Time;durP1;ratioP1;P1;durP2;ratioP2;P2;SDS_P1;SDS_P2;PMS_P1;PMS_P2;Temp;Humidity;BMP_temperature;BMP_pressure;BME280_temperature;BME280_humidity;BME280_pressure;Samples;Min_cycle;Max_cycle;Signal;HPM_P1;HPM_P2
2022/03/20 00:01:05;;;;;;;13.52;9.10;;;;;;;;;;5028076;28;20033;-62
2022/03/20 00:03:32;;;;;;;16.52;9.82;;;;;;;;;;5024196;28;20031;-63
2022/03/20 00:05:59;;;;;;;16.58;9.50;;;;;;;;;;5017501;28;20022;-63
2022/03/20 00:08:25;;;;;;;15.98;10.05;;;;;;;;;;5023215;28;20029;-62
2022/03/20 00:10:53;;;;;;;16.98;10.07;;;;;;;;;;5024771;28;20045;-62
2022/03/20 00:13:21;;;;;;;15.57;9.85;;;;;;;;;;5026427;28;20037;-63
2022/03/20 00:15:50;;;;;;;13.35;10.20;;;;;;;;;;5013750;28;20121;-62
2022/03/20 00:18:20;;;;;;;19.20;9.80;;;;;;;;;;5021164;28;20025;-63
2022/03/20 00:20:54;;;;;;;15.30;9.75;;;;;;;;;;5019155;28;20025;-63
2022/03/20 00:23:22;;;;;;;19.63;9.70;;;;;;;;;;5021166;28;20033;-63
2022/03/20 00:25:48;;;;;;;17.38;9.18;;;;;;;;;;5025908;28;20026;-63
2022/03/20 00:28:16;;;;;;;20.40;9.38;;;;;;;;;;5016857;28;20038;-62
2022/03/20 00:30:42;;;;;;;15.07;9.25;;;;;;;;;;5020676;28;20030;-63
2022/03/20 00:33:09;;;;;;;16.90;9.55;;;;;;;;;;5017765;28;20024;-63
2022/03/20 00:35:35;;;;;;;15.95;9.45;;;;;;;;;;5026331;28;20033;-63
2022/03/20 00:38:02;;;;;;;14.02;8.90;;;;;;;;;;5023410;28;20040;-63
2022/03/20 00:40:28;;;;;;;14.43;9.07;;;;;;;;;;5023208;28;20391;-62
2022/03/20 00:42:53;;;;;;;16.75;9.90;;;;;;;;;;5023619;28;20025;-63
2022/03/20 00:45:19;;;;;;;17.25;10.13;;;;;;;;;;5018093;28;20561;-63
2022/03/20 00:47:45;;;;;;;18.20;9.10;;;;;;;;;;5021617;28;20041;-63
2022/03/20 00:50:11;;;;;;;13.25;9.75;;;;;;;;;;5015932;28;20493;-63
2022/03/20 00:52:37;;;;;;;17.60;9.23;;;;;;;;;;5022129;28;20040;-62
2022/03/20 00:55:03;;;;;;;15.95;8.82;;;;;;;;;;5012650;28;20033;-62
2022/03/20 00:57:29;;;;;;;11.43;8.50;;;;;;;;;;5022065;28;20033;-62
2022/03/20 00:59:55;;;;;;;17.10;9.20;;;;;;;;;;5014323;28;20037;-63
2022/03/20 01:02:21;;;;;;;14.95;8.55;;;;;;;;;;5019537;28;20042;-62
2022/03/20 01:04:47;;;;;;;15.70;8.73;;;;;;;;;;5018768;28;20034;-63
2022/03/20 01:07:13;;;;;;;14.27;8.77;;;;;;;;;;5018978;28;20045;-62
2022/03/20 01:09:40;;;;;;;16.83;9.88;;;;;;;;;;5014817;28;20071;-63
2022/03/20 01:12:10;;;;;;;11.98;9.00;;;;;;;;;;5014783;28;20030;-62
2022/03/20 01:14:37;;;;;;;19.15;8.95;;;;;;;;;;5019166;28;20042;-63
2022/03/20 01:17:04;;;;;;;15.70;9.15;;;;;;;;;;5030934;28;20022;-62
2022/03/20 01:19:31;;;;;;;15.90;9.43;;;;;;;;;;5022084;28;20566;-63
2022/03/20 01:21:58;;;;;;;14.30;9.15;;;;;;;;;;5022555;28;20581;-63
2022/03/20 01:24:27;;;;;;;18.02;9.45;;;;;;;;;;5027706;28;20475;-63
2022/03/20 01:26:54;;;;;;;14.02;9.20;;;;;;;;;;5018271;28;20169;-63
2022/03/20 01:29:19;;;;;;;14.90;9.00;;;;;;;;;;5019369;28;20048;-63
2022/03/20 01:31:45;;;;;;;14.63;9.15;;;;;;;;;;5014697;28;20073;-63
2022/03/20 01:34:11;;;;;;;13.60;8.88;;;;;;;;;;5020363;28;20057;-63
2022/03/20 01:36:38;;;;;;;12.05;8.35;;;;;;;;;;5015804;28;20120;-62
2022/03/20 01:39:03;;;;;;;14.13;9.20;;;;;;;;;;5017381;28;20542;-62
2022/03/20 01:41:29;;;;;;;12.55;8.57;;;;;;;;;;5015263;28;20112;-62
2022/03/20 01:43:59;;;;;;;17.25;8.82;;;;;;;;;;5020326;28;20483;-63
2022/03/20 01:46:26;;;;;;;13.18;8.38;;;;;;;;;;5021005;28;20026;-62
2022/03/20 01:48:51;;;;;;;13.63;8.60;;;;;;;;;;5019213;28;20106;-63
2022/03/20 01:52:10;;;;;;;14.48;9.27;;;;;;;;;;5012984;28;20111;-62
2022/03/20 01:54:05;;;;;;;16.27;9.00;;;;;;;;;;5014439;28;20486;-63
2022/03/20 01:56:33;;;;;;;15.32;9.02;;;;;;;;;;5018312;28;20041;-62
2022/03/20 01:59:05;;;;;;;18.08;9.23;;;;;;;;;;5024064;28;20084;-62
2022/03/20 02:01:31;;;;;;;16.02;8.60;;;;;;;;;;5024215;28;20428;-63
2022/03/20 02:03:57;;;;;;;17.90;8.48;;;;;;;;;;5025522;28;20037;-63
2022/03/20 02:06:25;;;;;;;19.60;9.32;;;;;;;;;;5020188;28;20492;-62
2022/03/20 02:08:52;;;;;;;17.98;9.27;;;;;;;;;;5015725;28;20034;-63
2022/03/20 02:11:19;;;;;;;19.20;8.90;;;;;;;;;;5015619;28;20025;-63
2022/03/20 02:13:45;;;;;;;17.10;8.02;;;;;;;;;;5017309;28;20040;-62
2022/03/20 02:16:12;;;;;;;18.67;7.82;;;;;;;;;;5015394;28;20109;-63
2022/03/20 02:18:38;;;;;;;15.95;8.75;;;;;;;;;;5015114;28;20037;-62
2022/03/20 02:21:03;;;;;;;15.98;8.75;;;;;;;;;;5018108;28;20052;-62
2022/03/20 02:23:34;;;;;;;16.35;8.50;;;;;;;;;;5018760;28;20068;-63
2022/03/20 02:26:03;;;;;;;11.45;8.05;;;;;;;;;;5022003;28;20042;-62
2022/03/20 02:28:29;;;;;;;13.82;8.60;;;;;;;;;;5023768;28;20120;-63
2022/03/20 02:30:55;;;;;;;16.38;8.65;;;;;;;;;;5025592;28;20530;-63
2022/03/20 02:33:24;;;;;;;11.93;8.65;;;;;;;;;;5022750;28;20539;-63
2022/03/20 02:35:51;;;;;;;16.55;8.10;;;;;;;;;;5013048;28;20045;-63
2022/03/20 02:38:18;;;;;;;16.58;8.68;;;;;;;;;;5017741;28;20042;-63
2022/03/20 02:40:45;;;;;;;13.65;7.93;;;;;;;;;;5018058;28;20045;-63
2022/03/20 02:43:12;;;;;;;14.30;8.80;;;;;;;;;;5020604;28;20044;-63
2022/03/20 02:45:38;;;;;;;22.15;9.20;;;;;;;;;;5022458;28;20029;-63
2022/03/20 02:48:04;;;;;;;16.80;8.80;;;;;;;;;;5013993;28;20104;-63
2022/03/20 02:50:33;;;;;;;16.70;9.07;;;;;;;;;;5012234;28;20041;-63
2022/03/20 02:53:02;;;;;;;17.30;8.85;;;;;;;;;;5022174;28;20045;-63
2022/03/20 02:55:36;;;;;;;17.92;8.38;;;;;;;;;;5016774;28;20034;-63
2022/03/20 02:58:04;;;;;;;18.00;8.57;;;;;;;;;;5016287;28;20092;-63
2022/03/20 03:00:33;;;;;;;16.15;9.55;;;;;;;;;;5009945;28;20038;-63
2022/03/20 03:03:01;;;;;;;13.85;8.63;;;;;;;;;;5015398;28;20487;-63
2022/03/20 03:05:29;;;;;;;14.20;9.07;;;;;;;;;;5017177;28;20030;-63
2022/03/20 03:10:56;;;;;;;22.30;8.52;;;;;;;;;;5021536;28;20479;-63
2022/03/20 03:13:36;;;;;;;13.63;9.00;;;;;;;;;;5021167;28;20794;-63
2022/03/20 03:16:06;;;;;;;18.80;9.30;;;;;;;;;;5022014;28;20075;-62
2022/03/20 03:18:33;;;;;;;10.30;8.35;;;;;;;;;;5020824;28;20026;-62
2022/03/20 03:21:01;;;;;;;15.55;8.30;;;;;;;;;;5015143;28;20048;-62
2022/03/20 03:23:28;;;;;;;15.50;7.95;;;;;;;;;;5022122;28;20037;-62
2022/03/20 03:25:55;;;;;;;14.45;8.63;;;;;;;;;;5019181;28;20442;-63
2022/03/20 03:28:21;;;;;;;14.38;8.15;;;;;;;;;;5026473;28;20034;-61
2022/03/20 03:30:49;;;;;;;15.80;8.25;;;;;;;;;;5014397;28;20029;-63
2022/03/20 03:33:18;;;;;;;12.30;8.13;;;;;;;;;;5023145;28;20090;-63
2022/03/20 03:35:53;;;;;;;13.27;8.68;;;;;;;;;;5018885;28;20053;-62
2022/03/20 03:38:22;;;;;;;13.10;8.35;;;;;;;;;;5019017;28;20034;-63
2022/03/20 03:40:49;;;;;;;13.88;8.18;;;;;;;;;;5023779;28;20029;-62
2022/03/20 03:43:17;;;;;;;14.70;8.07;;;;;;;;;;5023512;28;20475;-62
2022/03/20 03:45:44;;;;;;;12.35;8.38;;;;;;;;;;5027986;28;20029;-62
2022/03/20 03:48:11;;;;;;;14.68;8.25;;;;;;;;;;5016420;28;20156;-63
2022/03/20 03:50:38;;;;;;;13.38;8.27;;;;;;;;;;5015540;28;20037;-63
2022/03/20 03:53:05;;;;;;;15.25;8.45;;;;;;;;;;5019684;28;20028;-62
2022/03/20 03:55:32;;;;;;;14.98;8.75;;;;;;;;;;5021450;28;20043;-63
2022/03/20 03:57:59;;;;;;;9.55;7.85;;;;;;;;;;5024762;28;20051;-62
2022/03/20 04:00:26;;;;;;;16.52;8.02;;;;;;;;;;5019480;28;20044;-62
2022/03/20 04:02:52;;;;;;;14.20;8.90;;;;;;;;;;5025021;28;20025;-62
2022/03/20 04:05:17;;;;;;;15.27;8.48;;;;;;;;;;5016357;28;20149;-62
2022/03/20 04:07:45;;;;;;;15.70;8.10;;;;;;;;;;5025055;28;20037;-62
2022/03/20 04:10:11;;;;;;;11.38;8.13;;;;;;;;;;5017994;28;20153;-62
2022/03/20 04:12:40;;;;;;;12.45;8.20;;;;;;;;;;5023375;28;20049;-63
2022/03/20 04:15:26;;;;;;;14.55;9.07;;;;;;;;;;5018266;28;20037;-62
2022/03/20 04:18:12;;;;;;;13.70;8.57;;;;;;;;;;5024158;28;20494;-63
2022/03/20 04:20:57;;;;;;;11.98;8.63;;;;;;;;;;5016002;28;20043;-63
2022/03/20 04:23:45;;;;;;;16.17;8.30;;;;;;;;;;5015751;28;20052;-63
2022/03/20 04:26:33;;;;;;;11.32;8.00;;;;;;;;;;5018611;28;20037;-63
2022/03/20 04:29:20;;;;;;;13.82;7.97;;;;;;;;;;5022661;28;20037;-63
2022/03/20 04:32:07;;;;;;;16.10;8.30;;;;;;;;;;5014158;28;20034;-63
2022/03/20 04:34:53;;;;;;;13.25;8.55;;;;;;;;;;5026062;28;20411;-63
2022/03/20 04:37:37;;;;;;;16.42;8.32;;;;;;;;;;5026281;28;20040;-63
2022/03/20 04:40:22;;;;;;;19.25;8.57;;;;;;;;;;5021134;28;20098;-62
2022/03/20 04:43:06;;;;;;;14.85;8.65;;;;;;;;;;5025665;28;20104;-62
2022/03/20 04:45:51;;;;;;;14.57;9.77;;;;;;;;;;5019416;28;20076;-63
2022/03/20 05:00:33;;;;;;;11.65;8.00;;;;;;;;;;5023653;28;20029;-62
2022/03/20 05:02:59;;;;;;;10.32;7.88;;;;;;;;;;5020317;28;20470;-63
2022/03/20 05:05:25;;;;;;;16.58;8.35;;;;;;;;;;5014935;28;20037;-63
2022/03/20 05:07:50;;;;;;;14.57;8.70;;;;;;;;;;5021157;28;20487;-63
2022/03/20 05:15:44;;;;;;;12.98;8.35;;;;;;;;;;5025834;28;20514;-62
2022/03/20 05:18:10;;;;;;;14.43;8.43;;;;;;;;;;5026486;28;20037;-63
2022/03/20 05:20:36;;;;;;;14.57;8.50;;;;;;;;;;5013353;28;20029;-63
2022/03/20 05:23:02;;;;;;;14.68;8.13;;;;;;;;;;5028982;28;20466;-62
2022/03/20 05:25:28;;;;;;;14.30;8.15;;;;;;;;;;5020111;28;20076;-63
2022/03/20 05:27:56;;;;;;;10.93;7.88;;;;;;;;;;5027548;28;20040;-63
2022/03/20 05:30:21;;;;;;;14.95;7.93;;;;;;;;;;5021026;28;20040;-62
2022/03/20 05:32:48;;;;;;;16.40;8.73;;;;;;;;;;5014276;28;20061;-63
2022/03/20 05:35:15;;;;;;;12.88;7.40;;;;;;;;;;5020678;28;20042;-63
2022/03/20 05:37:42;;;;;;;16.38;7.88;;;;;;;;;;5017163;28;20486;-62
2022/03/20 05:40:09;;;;;;;12.63;7.80;;;;;;;;;;5016217;28;20538;-63
2022/03/20 05:42:38;;;;;;;17.52;8.23;;;;;;;;;;5016232;28;20112;-62
2022/03/20 05:45:05;;;;;;;13.98;7.72;;;;;;;;;;5018625;28;20028;-62
2022/03/20 05:47:31;;;;;;;13.30;7.97;;;;;;;;;;5025509;28;20034;-63
2022/03/20 05:50:01;;;;;;;16.25;8.50;;;;;;;;;;5021652;28;20033;-62
2022/03/20 05:52:31;;;;;;;11.70;8.23;;;;;;;;;;5021459;28;20037;-63
2022/03/20 05:55:01;;;;;;;14.20;8.18;;;;;;;;;;5017910;28;20030;-63
2022/03/20 06:00:22;;;;;;;14.27;7.93;;;;;;;;;;5018786;28;20040;-63
2022/03/20 06:02:49;;;;;;;14.13;8.05;;;;;;;;;;5015290;28;20022;-63
2022/03/20 06:05:15;;;;;;;12.60;7.28;;;;;;;;;;5023690;28;20036;-63
2022/03/20 06:07:49;;;;;;;12.43;7.88;;;;;;;;;;5024698;28;20022;-62
2022/03/20 06:10:19;;;;;;;24.50;8.98;;;;;;;;;;5021819;28;20088;-63
2022/03/20 06:12:46;;;;;;;19.65;8.40;;;;;;;;;;5021244;28;20040;-62
2022/03/20 06:15:12;;;;;;;13.55;7.80;;;;;;;;;;5013361;28;20104;-62
2022/03/20 06:17:41;;;;;;;12.73;8.00;;;;;;;;;;5012276;28;20029;-63
2022/03/20 06:20:09;;;;;;;12.75;7.78;;;;;;;;;;5013246;28;20129;-63
2022/03/20 06:22:36;;;;;;;11.85;7.35;;;;;;;;;;5020054;28;20030;-63
2022/03/20 06:25:09;;;;;;;14.38;8.00;;;;;;;;;;5018910;28;20525;-61
2022/03/20 06:27:41;;;;;;;15.40;8.48;;;;;;;;;;5011501;28;20025;-63
2022/03/20 06:30:07;;;;;;;12.63;7.68;;;;;;;;;;5018671;28;20493;-63
2022/03/20 06:32:34;;;;;;;18.10;7.82;;;;;;;;;;5022247;28;20064;-62
2022/03/20 06:35:00;;;;;;;14.25;8.23;;;;;;;;;;5019591;28;20467;-63
2022/03/20 06:37:25;;;;;;;12.90;7.90;;;;;;;;;;5018941;28;20060;-63
2022/03/20 06:39:51;;;;;;;18.73;8.27;;;;;;;;;;5021837;28;20040;-63
2022/03/20 06:42:18;;;;;;;12.02;8.00;;;;;;;;;;5016142;28;20478;-62
2022/03/20 06:44:43;;;;;;;14.55;7.68;;;;;;;;;;5011228;28;20033;-63
2022/03/20 06:47:09;;;;;;;16.85;8.75;;;;;;;;;;5022292;28;20068;-62
2022/03/20 06:49:35;;;;;;;11.20;7.78;;;;;;;;;;5017408;28;20087;-62
2022/03/20 06:52:01;;;;;;;11.18;7.45;;;;;;;;;;5017502;28;20038;-63
2022/03/20 06:54:27;;;;;;;15.55;7.55;;;;;;;;;;5017670;28;20105;-62
2022/03/20 06:56:54;;;;;;;13.80;7.30;;;;;;;;;;5026730;28;20543;-63
2022/03/20 06:59:20;;;;;;;11.63;7.47;;;;;;;;;;5018405;28;20420;-63
2022/03/20 07:01:46;;;;;;;12.65;7.50;;;;;;;;;;5032626;28;20040;-62
2022/03/20 07:04:12;;;;;;;14.00;7.85;;;;;;;;;;5019415;28;20091;-63
2022/03/20 07:06:38;;;;;;;12.60;7.40;;;;;;;;;;5025139;28;20038;-63
2022/03/20 07:09:04;;;;;;;14.98;8.05;;;;;;;;;;5019915;28;20029;-63
2022/03/20 07:11:32;;;;;;;12.57;7.20;;;;;;;;;;5025869;28;20069;-63
2022/03/20 07:13:59;;;;;;;14.85;7.07;;;;;;;;;;5022905;28;20112;-63
2022/03/20 07:16:30;;;;;;;13.82;7.00;;;;;;;;;;5029244;28;20402;-63
2022/03/20 07:18:56;;;;;;;11.95;6.95;;;;;;;;;;5032748;28;20040;-63
2022/03/20 07:21:22;;;;;;;10.10;6.72;;;;;;;;;;5023845;28;20549;-63
2022/03/20 07:23:48;;;;;;;11.57;7.40;;;;;;;;;;5019993;28;20471;-63
2022/03/20 07:31:42;;;;;;;15.10;7.10;;;;;;;;;;5022968;28;20052;-62
2022/03/20 07:34:08;;;;;;;14.65;7.35;;;;;;;;;;5021147;28;20128;-62
2022/03/20 07:36:34;;;;;;;13.73;6.70;;;;;;;;;;5026410;28;20545;-63
2022/03/20 07:39:00;;;;;;;13.45;7.22;;;;;;;;;;5016748;28;20045;-62
2022/03/20 07:41:26;;;;;;;15.75;9.07;;;;;;;;;;5027163;28;20386;-63
2022/03/20 07:43:52;;;;;;;16.38;9.10;;;;;;;;;;5024208;28;20038;-62
2022/03/20 07:46:18;;;;;;;13.75;7.40;;;;;;;;;;5020137;28;20030;-62
2022/03/20 07:48:43;;;;;;;16.02;6.95;;;;;;;;;;5024746;28;20053;-63
2022/03/20 07:51:10;;;;;;;13.45;7.63;;;;;;;;;;5018315;28;20497;-62
2022/03/20 07:53:36;;;;;;;17.58;8.27;;;;;;;;;;5016626;28;20029;-63
2022/03/20 07:56:02;;;;;;;15.88;7.45;;;;;;;;;;5020634;28;20479;-62
2022/03/20 07:58:27;;;;;;;9.73;6.68;;;;;;;;;;5023208;28;20033;-62
2022/03/20 08:00:53;;;;;;;13.38;6.43;;;;;;;;;;5017354;28;20030;-63
2022/03/20 08:03:19;;;;;;;11.25;6.10;;;;;;;;;;5022357;28;20055;-63
2022/03/20 08:05:45;;;;;;;11.85;6.32;;;;;;;;;;5018688;28;20398;-62
2022/03/20 08:08:14;;;;;;;12.32;6.50;;;;;;;;;;5024917;28;20531;-63
2022/03/20 08:10:41;;;;;;;9.30;6.53;;;;;;;;;;5024239;28;20125;-63
2022/03/20 08:13:09;;;;;;;11.25;6.10;;;;;;;;;;5025614;28;20068;-63
2022/03/20 08:15:36;;;;;;;8.85;5.13;;;;;;;;;;5024621;28;20562;-63
2022/03/20 08:18:02;;;;;;;16.88;6.13;;;;;;;;;;5016686;28;20040;-63
2022/03/20 08:20:28;;;;;;;11.57;5.90;;;;;;;;;;5017145;28;20088;-63
2022/03/20 08:22:53;;;;;;;9.93;6.47;;;;;;;;;;5017519;28;20037;-63
2022/03/20 08:25:19;;;;;;;9.68;6.07;;;;;;;;;;5014934;28;20041;-63
2022/03/20 08:27:47;;;;;;;14.40;6.07;;;;;;;;;;5023522;28;20033;-63
2022/03/20 08:30:17;;;;;;;14.52;5.93;;;;;;;;;;5026274;28;20083;-63
2022/03/20 08:32:47;;;;;;;8.43;5.82;;;;;;;;;;5012389;28;20030;-64
2022/03/20 08:35:14;;;;;;;11.23;6.03;;;;;;;;;;5016982;28;20041;-64
2022/03/20 08:37:44;;;;;;;14.95;6.05;;;;;;;;;;5020438;28;20120;-63
2022/03/20 08:40:15;;;;;;;8.65;5.70;;;;;;;;;;5022163;28;20148;-63
2022/03/20 08:42:45;;;;;;;9.20;6.03;;;;;;;;;;5023077;28;20044;-63
2022/03/20 08:45:12;;;;;;;10.25;5.93;;;;;;;;;;5016199;28;20046;-64
2022/03/20 08:47:39;;;;;;;13.10;5.82;;;;;;;;;;5013941;28;20088;-63
2022/03/20 08:50:05;;;;;;;8.63;6.20;;;;;;;;;;5024527;28;20373;-64
2022/03/20 08:52:31;;;;;;;12.60;6.40;;;;;;;;;;5014386;28;20046;-64
2022/03/20 08:54:57;;;;;;;14.45;6.45;;;;;;;;;;5023869;28;20067;-63
2022/03/20 08:57:27;;;;;;;12.15;6.13;;;;;;;;;;5022246;28;20034;-63
2022/03/20 08:59:55;;;;;;;10.95;6.40;;;;;;;;;;5020752;28;20509;-63
2022/03/20 09:02:21;;;;;;;10.57;6.25;;;;;;;;;;5020007;28;20038;-62
2022/03/20 09:04:47;;;;;;;10.23;6.20;;;;;;;;;;5019539;28;20083;-63
2022/03/20 09:07:13;;;;;;;10.35;6.60;;;;;;;;;;5011129;28;20516;-63
2022/03/20 09:09:38;;;;;;;10.32;6.20;;;;;;;;;;5016667;28;20036;-64
2022/03/20 09:12:05;;;;;;;11.30;6.63;;;;;;;;;;5015278;28;20088;-63
2022/03/20 09:14:31;;;;;;;10.98;6.60;;;;;;;;;;5017814;28;20167;-63
2022/03/20 09:19:41;;;;;;;11.07;6.70;;;;;;;;;;5015878;28;20137;-60
2022/03/20 09:22:07;;;;;;;17.52;6.90;;;;;;;;;;5015040;28;20077;-63
2022/03/20 09:24:33;;;;;;;11.80;7.60;;;;;;;;;;5014660;28;20030;-63
2022/03/20 09:27:00;;;;;;;12.43;6.05;;;;;;;;;;5014736;28;20173;-64
2022/03/20 09:29:26;;;;;;;9.10;6.75;;;;;;;;;;5016292;28;20048;-63
2022/03/20 09:31:53;;;;;;;10.40;7.10;;;;;;;;;;5018199;28;20034;-63
2022/03/20 09:34:18;;;;;;;8.63;6.57;;;;;;;;;;5017558;28;20037;-64
2022/03/20 09:36:44;;;;;;;9.40;6.38;;;;;;;;;;5012718;28;20360;-64
2022/03/20 09:39:10;;;;;;;10.30;6.93;;;;;;;;;;5011402;28;20041;-63
2022/03/20 09:41:41;;;;;;;9.77;7.03;;;;;;;;;;5014742;28;20029;-63
2022/03/20 09:44:08;;;;;;;12.55;7.13;;;;;;;;;;5013710;28;20108;-64
2022/03/20 09:46:34;;;;;;;11.20;7.00;;;;;;;;;;5013901;28;20054;-64
2022/03/20 09:49:03;;;;;;;14.57;6.95;;;;;;;;;;5014130;28;20121;-63
2022/03/20 09:51:29;;;;;;;9.52;6.00;;;;;;;;;;5015686;28;20033;-63
2022/03/20 09:53:55;;;;;;;11.80;6.20;;;;;;;;;;5012219;28;20041;-63
2022/03/20 09:56:20;;;;;;;11.07;6.63;;;;;;;;;;5013740;28;20040;-63
2022/03/20 09:58:46;;;;;;;13.35;6.78;;;;;;;;;;5016828;28;20494;-63
2022/03/20 10:01:12;;;;;;;7.95;6.50;;;;;;;;;;5013408;28;20116;-63
2022/03/20 10:03:38;;;;;;;13.65;7.72;;;;;;;;;;5018116;28;20025;-63
2022/03/20 10:06:17;;;;;;;13.32;6.60;;;;;;;;;;5012684;28;20083;-62
2022/03/20 10:09:04;;;;;;;11.00;6.60;;;;;;;;;;5010536;28;20821;-63
2022/03/20 10:11:31;;;;;;;13.10;6.82;;;;;;;;;;5014283;28;20125;-63
2022/03/20 10:14:20;;;;;;;10.80;6.70;;;;;;;;;;5013392;28;20038;-63
2022/03/20 10:16:54;;;;;;;9.70;6.85;;;;;;;;;;5020858;28;20803;-63
2022/03/20 10:19:22;;;;;;;16.73;7.00;;;;;;;;;;5013744;28;20077;-63
2022/03/20 10:21:52;;;;;;;11.50;7.28;;;;;;;;;;5018807;28;20537;-63
2022/03/20 10:24:19;;;;;;;12.85;7.00;;;;;;;;;;5009368;28;20029;-63
2022/03/20 10:26:49;;;;;;;10.73;6.40;;;;;;;;;;5011399;28;20029;-63
2022/03/20 10:29:17;;;;;;;12.93;7.18;;;;;;;;;;5011789;28;20550;-63
2022/03/20 10:31:50;;;;;;;8.57;6.50;;;;;;;;;;5021854;28;20092;-63
2022/03/20 10:34:18;;;;;;;9.68;6.65;;;;;;;;;;5017063;28;20077;-63
2022/03/20 10:36:44;;;;;;;13.15;6.50;;;;;;;;;;5024899;28;20037;-63
2022/03/20 10:39:12;;;;;;;10.15;6.20;;;;;;;;;;5017161;28;20033;-63
2022/03/20 10:41:39;;;;;;;9.75;6.82;;;;;;;;;;5022291;28;20064;-63
2022/03/20 10:44:16;;;;;;;10.60;5.90;;;;;;;;;;5019463;28;20439;-64
2022/03/20 10:46:43;;;;;;;10.75;6.25;;;;;;;;;;5018933;28;20458;-64
2022/03/20 10:49:11;;;;;;;13.13;6.28;;;;;;;;;;5020171;28;20088;-63
2022/03/20 10:51:38;;;;;;;8.63;6.10;;;;;;;;;;5018710;28;20022;-64
2022/03/20 10:54:14;;;;;;;11.40;6.15;;;;;;;;;;5016110;28;20065;-63
2022/03/20 10:56:56;;;;;;;9.05;6.38;;;;;;;;;;5015055;28;20525;-63
2022/03/20 10:59:23;;;;;;;7.95;6.28;;;;;;;;;;5019134;28;20041;-63
2022/03/20 11:01:49;;;;;;;6.40;5.78;;;;;;;;;;5017893;28;20057;-63
2022/03/20 11:04:16;;;;;;;9.45;5.88;;;;;;;;;;5020776;28;20121;-63
2022/03/20 11:06:43;;;;;;;16.85;6.90;;;;;;;;;;5017557;28;20033;-63
2022/03/20 11:09:09;;;;;;;9.63;6.10;;;;;;;;;;5013983;28;20037;-64
2022/03/20 11:11:43;;;;;;;9.25;6.00;;;;;;;;;;5012558;28;20145;-64
2022/03/20 11:14:10;;;;;;;8.52;5.78;;;;;;;;;;5021790;28;20034;-64
2022/03/20 11:16:38;;;;;;;12.63;6.30;;;;;;;;;;5019588;28;20037;-64
2022/03/20 11:19:08;;;;;;;23.70;6.40;;;;;;;;;;5023619;28;20471;-63
2022/03/20 11:21:36;;;;;;;9.27;5.90;;;;;;;;;;5018011;28;20130;-63
2022/03/20 11:24:03;;;;;;;10.75;6.25;;;;;;;;;;5014367;28;20398;-63
2022/03/20 11:26:29;;;;;;;9.75;6.03;;;;;;;;;;5017252;28;20030;-63
2022/03/20 11:28:59;;;;;;;13.68;6.40;;;;;;;;;;5020336;28;20390;-63
2022/03/20 11:31:25;;;;;;;16.80;6.07;;;;;;;;;;5018015;28;20046;-63
2022/03/20 11:33:52;;;;;;;15.82;6.28;;;;;;;;;;5019108;28;20030;-63
2022/03/20 11:36:18;;;;;;;8.45;5.93;;;;;;;;;;5020669;28;20061;-63
2022/03/20 11:39:13;;;;;;;9.00;5.60;;;;;;;;;;5019033;28;20479;-63
2022/03/20 11:41:39;;;;;;;14.63;6.28;;;;;;;;;;5017147;28;20042;-63
2022/03/20 11:44:20;;;;;;;13.93;6.38;;;;;;;;;;5018857;28;20068;-63
2022/03/20 11:47:06;;;;;;;10.23;6.45;;;;;;;;;;5019758;28;20033;-63
2022/03/20 11:49:33;;;;;;;12.52;5.97;;;;;;;;;;5020375;28;20037;-62
2022/03/20 11:52:10;;;;;;;9.30;5.85;;;;;;;;;;5020187;28;20131;-62
2022/03/20 11:54:42;;;;;;;9.68;6.15;;;;;;;;;;5017339;28;20053;-63
2022/03/20 11:57:26;;;;;;;10.43;6.05;;;;;;;;;;5017109;28;20097;-63
2022/03/20 11:59:56;;;;;;;6.57;5.25;;;;;;;;;;5015021;28;20451;-64
2022/03/20 12:02:50;;;;;;;10.48;5.70;;;;;;;;;;5022208;28;20075;-62
2022/03/20 12:05:41;;;;;;;8.10;5.70;;;;;;;;;;5008336;28;20038;-64
2022/03/20 12:08:44;;;;;;;8.25;5.90;;;;;;;;;;5002700;28;20042;-64
2022/03/20 12:11:37;;;;;;;8.95;5.80;;;;;;;;;;5005362;28;20034;-63
2022/03/20 12:14:18;;;;;;;9.23;6.18;;;;;;;;;;5002359;28;20064;-63
2022/03/20 12:16:44;;;;;;;6.90;5.70;;;;;;;;;;4981456;28;20088;-63
2022/03/20 12:19:15;;;;;;;9.13;6.45;;;;;;;;;;5003822;28;20075;-63
2022/03/20 12:22:03;;;;;;;12.80;6.25;;;;;;;;;;5002736;28;20030;-63
2022/03/20 12:24:35;;;;;;;7.30;6.55;;;;;;;;;;5005760;28;20068;-63
2022/03/20 12:27:19;;;;;;;8.65;6.32;;;;;;;;;;5002418;28;20029;-61
2022/03/20 12:29:53;;;;;;;10.98;5.78;;;;;;;;;;5004398;28;20088;-63
2022/03/20 12:32:21;;;;;;;6.90;6.20;;;;;;;;;;4997015;28;20442;-63
2022/03/20 12:35:04;;;;;;;8.70;6.63;;;;;;;;;;5001649;28;20046;-63
2022/03/20 12:37:34;;;;;;;10.75;5.43;;;;;;;;;;5005068;28;20049;-63
2022/03/20 12:40:18;;;;;;;7.07;6.28;;;;;;;;;;5002049;28;20042;-63
2022/03/20 12:43:07;;;;;;;19.42;7.53;;;;;;;;;;5015721;28;20037;-63
2022/03/20 12:45:45;;;;;;;10.65;5.63;;;;;;;;;;5018570;28;20099;-63
2022/03/20 12:48:16;;;;;;;7.43;6.03;;;;;;;;;;5013934;28;20490;-63
2022/03/20 12:50:48;;;;;;;7.50;5.78;;;;;;;;;;5012498;28;20485;-63
2022/03/20 12:53:21;;;;;;;8.70;6.47;;;;;;;;;;5016183;28;20075;-63
2022/03/20 12:55:55;;;;;;;7.43;6.30;;;;;;;;;;5016307;28;20038;-63
2022/03/20 12:58:22;;;;;;;8.73;5.90;;;;;;;;;;5015493;28;20030;-63
2022/03/20 13:00:48;;;;;;;11.57;6.32;;;;;;;;;;5021264;28;20112;-63
2022/03/20 13:03:18;;;;;;;7.63;5.95;;;;;;;;;;5019614;28;20492;-63
2022/03/20 13:05:58;;;;;;;7.25;6.30;;;;;;;;;;5017846;28;20075;-63
2022/03/20 13:08:23;;;;;;;12.35;6.90;;;;;;;;;;5014087;28;20060;-62
2022/03/20 13:10:51;;;;;;;6.72;5.78;;;;;;;;;;5022401;28;20061;-64
2022/03/20 13:13:20;;;;;;;7.82;5.70;;;;;;;;;;5017726;28;20029;-63
2022/03/20 13:15:48;;;;;;;9.73;6.45;;;;;;;;;;5017797;28;20030;-62
2022/03/20 13:18:14;;;;;;;6.35;5.72;;;;;;;;;;5011446;28;20454;-63
2022/03/20 13:20:42;;;;;;;9.63;6.60;;;;;;;;;;5016082;28;20109;-62
2022/03/20 13:23:11;;;;;;;8.25;5.95;;;;;;;;;;5014811;28;20076;-63
2022/03/20 13:25:39;;;;;;;10.45;6.35;;;;;;;;;;5013500;28;20105;-63
2022/03/20 13:28:05;;;;;;;10.35;6.88;;;;;;;;;;5011331;28;20048;-63
2022/03/20 13:30:34;;;;;;;10.27;6.05;;;;;;;;;;5016152;28;20036;-63
2022/03/20 13:33:00;;;;;;;8.32;6.32;;;;;;;;;;5011295;28;20063;-63
2022/03/20 13:35:26;;;;;;;8.98;6.53;;;;;;;;;;5016431;28;20048;-64
2022/03/20 13:37:54;;;;;;;10.32;6.22;;;;;;;;;;5022471;28;20099;-63
2022/03/20 13:40:24;;;;;;;9.73;6.50;;;;;;;;;;5013826;28;20084;-63
2022/03/20 13:42:52;;;;;;;11.88;6.30;;;;;;;;;;5016923;28;20046;-63
2022/03/20 13:45:20;;;;;;;8.52;6.25;;;;;;;;;;5017255;28;20036;-63
2022/03/20 13:47:48;;;;;;;7.40;6.35;;;;;;;;;;5012309;28;20034;-63
2022/03/20 13:50:15;;;;;;;7.68;6.28;;;;;;;;;;5016230;28;20087;-63
2022/03/20 13:54:23;;;;;;;10.63;6.75;;;;;;;;;;5047963;28;20916;-63
2022/03/20 13:57:10;;;;;;;10.57;7.78;;;;;;;;;;5029952;28;20146;-64
2022/03/20 13:59:50;;;;;;;9.35;6.55;;;;;;;;;;5037061;28;20056;-63
2022/03/20 14:02:17;;;;;;;8.73;6.53;;;;;;;;;;5036494;28;20426;-64
2022/03/20 14:04:42;;;;;;;9.73;6.50;;;;;;;;;;5030943;28;20040;-64
2022/03/20 14:07:23;;;;;;;12.15;6.80;;;;;;;;;;5032796;28;21290;-63
2022/03/20 14:09:51;;;;;;;14.38;6.90;;;;;;;;;;5037929;28;20040;-63
2022/03/20 14:12:30;;;;;;;7.22;5.78;;;;;;;;;;5034382;28;20064;-63
2022/03/20 14:15:11;;;;;;;11.55;5.80;;;;;;;;;;5032067;28;20021;-64
2022/03/20 14:17:46;;;;;;;7.63;6.05;;;;;;;;;;5026724;28;20037;-63
2022/03/20 14:20:14;;;;;;;8.25;6.05;;;;;;;;;;5033007;28;20610;-63
2022/03/20 14:22:42;;;;;;;8.20;6.38;;;;;;;;;;5031703;28;20034;-63
2022/03/20 14:25:08;;;;;;;12.15;6.07;;;;;;;;;;5031054;28;20044;-63
2022/03/20 14:27:36;;;;;;;8.63;6.53;;;;;;;;;;5029735;28;20076;-64
2022/03/20 14:41:27;;;;;;;8.02;5.80;;;;;;;;;;5026044;28;20041;-63
2022/03/20 14:44:16;;;;;;;6.25;5.60;;;;;;;;;;5036640;28;20037;-63
2022/03/20 14:46:48;;;;;;;7.15;5.63;;;;;;;;;;5044430;28;20028;-63
2022/03/20 14:49:16;;;;;;;10.88;7.07;;;;;;;;;;5036533;28;20045;-63
2022/03/20 14:51:43;;;;;;;9.77;7.80;;;;;;;;;;5034019;28;20035;-62
2022/03/20 14:54:12;;;;;;;6.93;5.45;;;;;;;;;;5030474;28;20037;-63
2022/03/20 14:56:39;;;;;;;7.25;5.93;;;;;;;;;;5040855;28;20021;-63
2022/03/20 14:59:10;;;;;;;8.00;6.32;;;;;;;;;;5028040;28;20052;-63
2022/03/20 15:01:43;;;;;;;8.77;5.77;;;;;;;;;;5031107;28;20065;-63
2022/03/20 15:04:12;;;;;;;10.15;5.85;;;;;;;;;;5025192;28;20553;-63
2022/03/20 15:06:40;;;;;;;10.02;5.75;;;;;;;;;;5016241;28;20048;-63
2022/03/20 15:11:52;;;;;;;9.25;6.30;;;;;;;;;;4978907;28;20053;-63
2022/03/20 15:14:18;;;;;;;8.75;6.07;;;;;;;;;;4987344;28;20046;-63
2022/03/20 15:16:44;;;;;;;9.95;5.80;;;;;;;;;;4980839;28;20161;-63
2022/03/20 15:19:10;;;;;;;6.63;5.80;;;;;;;;;;4984300;28;20106;-63
2022/03/20 15:21:36;;;;;;;8.65;6.28;;;;;;;;;;4977621;28;20045;-63
2022/03/20 15:24:02;;;;;;;12.63;7.13;;;;;;;;;;4981771;28;20448;-63
2022/03/20 15:26:28;;;;;;;11.32;6.30;;;;;;;;;;4986957;28;20034;-63
2022/03/20 15:28:55;;;;;;;10.07;5.93;;;;;;;;;;4989057;28;20049;-63
2022/03/20 15:31:22;;;;;;;8.90;5.72;;;;;;;;;;4985484;28;20030;-63
2022/03/20 15:33:48;;;;;;;7.18;6.40;;;;;;;;;;4988614;28;20042;-63